Time;durP1;ratioP1;P1;durP2;ratioP2;P2;SDS_P1;SDS_P2;PMS_P1;PMS_P2;Temp;Humidity;BMP_temperature;BMP_pressure;BME280_temperature;BME280_humidity;BME280_pressure;Samples;Min_cycle;Max_cycle;Signal;HPM_P1;HPM_P2
2022/01/11 00:01:11;;;;;;;9.67;5.10;;;;;;;;;;6267932;28;20314;-76
2022/01/11 00:04:28;;;;;;;5.60;5.10;;;;;;;;;;6288585;28;20191;-75
2022/01/11 00:07:35;;;;;;;5.30;4.90;;;;;;;;;;6287498;28;20255;-75
2022/01/11 00:10:48;;;;;;;4.87;4.50;;;;;;;;;;6286609;28;20478;-76
2022/01/11 00:13:57;;;;;;;5.90;5.30;;;;;;;;;;6287460;28;20185;-75
2022/01/11 00:17:01;;;;;;;6.37;4.87;;;;;;;;;;6286607;28;20399;-76
2022/01/11 00:20:12;;;;;;;5.53;4.30;;;;;;;;;;6270265;28;20207;-76
2022/01/11 00:26:37;;;;;;;5.33;4.87;;;;;;;;;;6287074;28;20253;-76
2022/01/11 00:29:45;;;;;;;5.90;5.37;;;;;;;;;;6287132;28;20184;-76
2022/01/11 00:32:58;;;;;;;5.57;5.10;;;;;;;;;;6268224;28;20299;-76
2022/01/11 00:36:06;;;;;;;9.07;5.10;;;;;;;;;;6265615;28;20304;-76
2022/01/11 00:39:11;;;;;;;7.70;5.53;;;;;;;;;;6245280;28;20300;-76
2022/01/11 00:42:16;;;;;;;6.77;5.23;;;;;;;;;;6249603;28;20563;-76
2022/01/11 00:45:21;;;;;;;7.40;5.23;;;;;;;;;;6261761;28;20253;-76
2022/01/11 00:48:25;;;;;;;7.07;5.63;;;;;;;;;;6260266;28;20464;-76
2022/01/11 00:51:30;;;;;;;7.90;5.27;;;;;;;;;;6261738;28;20287;-76
2022/01/11 00:54:35;;;;;;;6.30;5.17;;;;;;;;;;6262827;28;20185;-76
2022/01/11 00:57:40;;;;;;;6.63;5.03;;;;;;;;;;6261270;28;20526;-76
2022/01/11 01:00:44;;;;;;;5.30;4.73;;;;;;;;;;6261797;28;20216;-76
2022/01/11 01:03:48;;;;;;;5.87;5.00;;;;;;;;;;6244631;28;20212;-76
2022/01/11 01:06:54;;;;;;;4.97;4.57;;;;;;;;;;6243728;28;20299;-76
2022/01/11 01:10:02;;;;;;;6.60;5.10;;;;;;;;;;6244051;28;20224;-76
2022/01/11 01:13:17;;;;;;;5.13;4.53;;;;;;;;;;6244377;28;20230;-76
2022/01/11 01:16:25;;;;;;;6.73;5.17;;;;;;;;;;6243472;28;20274;-76
2022/01/11 01:19:44;;;;;;;4.80;4.50;;;;;;;;;;6244038;28;20253;-76
2022/01/11 01:22:50;;;;;;;5.30;4.80;;;;;;;;;;6243052;28;20244;-76
2022/01/11 01:25:55;;;;;;;5.50;4.97;;;;;;;;;;6261882;28;20279;-76
2022/01/11 01:29:00;;;;;;;5.83;5.07;;;;;;;;;;6261756;28;20253;-76
2022/01/11 01:32:06;;;;;;;7.10;4.83;;;;;;;;;;6243618;28;20579;-76
2022/01/11 01:35:12;;;;;;;6.43;5.23;;;;;;;;;;6260865;28;20199;-76
2022/01/11 01:38:21;;;;;;;6.23;4.13;;;;;;;;;;6260570;28;20261;-76
2022/01/11 01:41:26;;;;;;;5.40;4.90;;;;;;;;;;6265251;28;20460;-76
2022/01/11 01:44:32;;;;;;;5.17;4.73;;;;;;;;;;6249171;28;20201;-76
2022/01/11 01:47:37;;;;;;;3.93;3.63;;;;;;;;;;6266052;28;20397;-76
2022/01/11 01:50:41;;;;;;;4.30;4.00;;;;;;;;;;6265822;28;20190;-76
2022/01/11 01:53:48;;;;;;;4.90;4.50;;;;;;;;;;6266174;28;20192;-76
2022/01/11 01:56:53;;;;;;;4.53;4.23;;;;;;;;;;6247560;28;20288;-76
2022/01/11 01:59:57;;;;;;;3.97;3.73;;;;;;;;;;6248022;28;20288;-76
2022/01/11 02:03:05;;;;;;;4.60;4.20;;;;;;;;;;6248448;28;20542;-76
2022/01/11 02:06:13;;;;;;;4.33;4.10;;;;;;;;;;6265455;28;20237;-76
2022/01/11 02:09:18;;;;;;;7.03;4.03;;;;;;;;;;6266409;28;20191;-76
2022/01/11 02:12:24;;;;;;;4.10;3.90;;;;;;;;;;6247608;28;20365;-75
2022/01/11 02:15:28;;;;;;;4.67;3.97;;;;;;;;;;6248527;28;20283;-76
2022/01/11 02:18:35;;;;;;;4.67;4.17;;;;;;;;;;6272097;28;20243;-75
2022/01/11 02:21:46;;;;;;;4.83;4.43;;;;;;;;;;6261730;28;20229;-75
2022/01/11 02:24:51;;;;;;;4.50;4.10;;;;;;;;;;6248091;28;20270;-75
2022/01/11 02:27:57;;;;;;;5.17;4.77;;;;;;;;;;6246583;28;20230;-76
2022/01/11 02:31:03;;;;;;;4.50;4.13;;;;;;;;;;6246663;28;20230;-76
2022/01/11 02:34:09;;;;;;;5.07;3.97;;;;;;;;;;6246927;28;20302;-76
2022/01/11 02:37:43;;;;;;;6.27;4.43;;;;;;;;;;6246872;28;20232;-75
2022/01/11 02:40:50;;;;;;;4.37;4.00;;;;;;;;;;6246997;28;20226;-76
2022/01/11 02:43:55;;;;;;;4.77;4.30;;;;;;;;;;6264384;28;20350;-76
2022/01/11 02:47:01;;;;;;;4.90;4.57;;;;;;;;;;6246762;28;20229;-76
2022/01/11 02:50:11;;;;;;;5.00;4.03;;;;;;;;;;6246232;28;20213;-76
2022/01/11 02:53:21;;;;;;;3.97;3.53;;;;;;;;;;6246134;28;20242;-75
2022/01/11 02:56:30;;;;;;;4.90;4.43;;;;;;;;;;6246246;28;20227;-76
2022/01/11 02:59:35;;;;;;;5.77;4.33;;;;;;;;;;6246590;28;20247;-76
2022/01/11 03:02:39;;;;;;;6.73;4.47;;;;;;;;;;6246246;28;20245;-76
2022/01/11 03:05:48;;;;;;;4.33;4.10;;;;;;;;;;6246483;28;20203;-76
2022/01/11 03:08:55;;;;;;;5.03;4.63;;;;;;;;;;6246586;28;20515;-76
2022/01/11 03:12:00;;;;;;;4.47;4.07;;;;;;;;;;6246130;28;20454;-76
2022/01/11 03:15:06;;;;;;;5.57;3.77;;;;;;;;;;6263614;28;20463;-76
2022/01/11 03:18:18;;;;;;;4.63;4.33;;;;;;;;;;6247568;28;20241;-76
2022/01/11 03:21:26;;;;;;;4.80;4.30;;;;;;;;;;6263273;28;20226;-76
2022/01/11 03:24:32;;;;;;;5.07;3.87;;;;;;;;;;6246513;28;20238;-76
2022/01/11 03:27:38;;;;;;;6.17;4.40;;;;;;;;;;6245590;28;20231;-77
2022/01/11 03:30:43;;;;;;;4.87;4.50;;;;;;;;;;6245212;28;20529;-77
2022/01/11 03:33:48;;;;;;;4.97;4.60;;;;;;;;;;6220738;28;20245;-77
2022/01/11 03:36:52;;;;;;;4.43;4.03;;;;;;;;;;6224101;28;20263;-77
2022/01/11 03:39:59;;;;;;;5.00;4.53;;;;;;;;;;6237388;28;20400;-77
2022/01/11 03:43:03;;;;;;;4.77;4.37;;;;;;;;;;6237385;28;20275;-77
2022/01/11 03:46:10;;;;;;;4.53;4.23;;;;;;;;;;6237891;28;20246;-75
2022/01/11 03:49:14;;;;;;;6.93;4.97;;;;;;;;;;6237994;28;20214;-75
2022/01/11 03:52:19;;;;;;;5.03;4.60;;;;;;;;;;6236665;28;20469;-75
2022/01/11 03:55:43;;;;;;;5.43;4.33;;;;;;;;;;6237403;28;20236;-75
2022/01/11 03:58:50;;;;;;;5.57;4.37;;;;;;;;;;6237065;28;20231;-75
2022/01/11 04:01:54;;;;;;;4.60;4.17;;;;;;;;;;6236541;28;20231;-75
2022/01/11 04:04:59;;;;;;;6.13;4.40;;;;;;;;;;6237591;28;20251;-75
2022/01/11 04:08:04;;;;;;;5.00;4.63;;;;;;;;;;6236421;28;20243;-75
2022/01/11 04:11:09;;;;;;;4.90;4.47;;;;;;;;;;6236513;28;20229;-75
2022/01/11 04:14:13;;;;;;;7.10;3.97;;;;;;;;;;6238979;28;20220;-75
2022/01/11 04:17:18;;;;;;;5.07;4.67;;;;;;;;;;6238136;28;20235;-75
2022/01/11 04:20:23;;;;;;;5.57;4.43;;;;;;;;;;6236528;28;20247;-75
2022/01/11 04:23:27;;;;;;;4.37;4.07;;;;;;;;;;6236781;28;20570;-75
2022/01/11 04:26:32;;;;;;;4.73;3.87;;;;;;;;;;6236946;28;20440;-75
2022/01/11 04:29:41;;;;;;;4.40;4.10;;;;;;;;;;6236432;28;20209;-75
2022/01/11 04:32:45;;;;;;;4.03;3.80;;;;;;;;;;6243318;28;20583;-75
2022/01/11 04:35:53;;;;;;;8.27;4.33;;;;;;;;;;6262361;28;20223;-75
2022/01/11 04:38:59;;;;;;;5.33;4.20;;;;;;;;;;6244539;28;20270;-75
2022/01/11 04:42:08;;;;;;;4.23;4.03;;;;;;;;;;6243831;28;20231;-75
2022/01/11 04:45:14;;;;;;;4.10;3.73;;;;;;;;;;6244848;28;20207;-75
2022/01/11 04:48:19;;;;;;;4.53;4.13;;;;;;;;;;6244465;28;20303;-75
2022/01/11 04:51:25;;;;;;;5.00;4.60;;;;;;;;;;6243422;28;20290;-75
2022/01/11 04:54:30;;;;;;;7.03;4.53;;;;;;;;;;6244267;28;20203;-75
2022/01/11 04:57:36;;;;;;;4.73;4.13;;;;;;;;;;6246908;28;20294;-75
2022/01/11 05:00:40;;;;;;;5.50;5.07;;;;;;;;;;6285463;28;20544;-75
2022/01/11 05:03:44;;;;;;;5.17;4.67;;;;;;;;;;6286378;28;20194;-75
2022/01/11 05:06:49;;;;;;;4.90;4.47;;;;;;;;;;6268102;28;20430;-75
2022/01/11 05:09:53;;;;;;;6.80;4.90;;;;;;;;;;6287500;28;20196;-75
2022/01/11 05:12:59;;;;;;;7.20;4.77;;;;;;;;;;6286470;28;20226;-75
2022/01/11 05:16:03;;;;;;;5.10;4.23;;;;;;;;;;6273012;28;20261;-75
2022/01/11 05:19:12;;;;;;;5.30;4.60;;;;;;;;;;6273873;28;20286;-75
2022/01/11 05:22:17;;;;;;;7.57;4.30;;;;;;;;;;6273061;28;20238;-75
2022/01/11 05:25:21;;;;;;;5.17;4.37;;;;;;;;;;6273666;28;20361;-75
2022/01/11 05:28:40;;;;;;;4.77;4.17;;;;;;;;;;6291402;28;20212;-75
2022/01/11 05:31:45;;;;;;;7.57;4.40;;;;;;;;;;6272759;28;20279;-75
2022/01/11 05:34:50;;;;;;;4.70;3.97;;;;;;;;;;6273854;28;20232;-75
2022/01/11 05:37:54;;;;;;;10.77;4.30;;;;;;;;;;6273257;28;20310;-75
2022/01/11 05:40:58;;;;;;;7.03;5.23;;;;;;;;;;6272454;28;20301;-75
2022/01/11 05:44:04;;;;;;;6.03;3.77;;;;;;;;;;6273725;28;20207;-75
2022/01/11 05:47:09;;;;;;;5.97;4.53;;;;;;;;;;6272351;28;20294;-75
2022/01/11 05:50:15;;;;;;;5.30;4.47;;;;;;;;;;6273385;28;20196;-75
2022/01/11 05:53:21;;;;;;;4.57;3.73;;;;;;;;;;6272465;28;20241;-75
2022/01/11 05:56:27;;;;;;;5.10;4.60;;;;;;;;;;6272918;28;20235;-75
2022/01/11 05:59:33;;;;;;;4.63;4.07;;;;;;;;;;6253411;28;20260;-75
2022/01/11 06:02:37;;;;;;;4.50;4.20;;;;;;;;;;6247878;28;20267;-75
2022/01/11 06:05:41;;;;;;;4.80;4.40;;;;;;;;;;6247365;28;20321;-77
2022/01/11 06:08:49;;;;;;;4.07;3.80;;;;;;;;;;6248361;28;20382;-76
2022/01/11 06:11:54;;;;;;;4.60;4.27;;;;;;;;;;6247028;28;20243;-76
2022/01/11 06:15:00;;;;;;;4.17;3.87;;;;;;;;;;6247260;28;20406;-76
2022/01/11 06:18:05;;;;;;;4.03;3.73;;;;;;;;;;6247224;28;20231;-76
2022/01/11 06:21:18;;;;;;;5.80;4.13;;;;;;;;;;6247566;28;20233;-76
2022/01/11 06:24:23;;;;;;;4.40;4.00;;;;;;;;;;6247744;28;20200;-76
2022/01/11 06:27:28;;;;;;;3.67;3.40;;;;;;;;;;6246308;28;20489;-77
2022/01/11 06:30:33;;;;;;;4.03;3.60;;;;;;;;;;6246573;28;20550;-77
2022/01/11 06:33:38;;;;;;;4.47;3.67;;;;;;;;;;6271129;28;20240;-77
2022/01/11 06:36:42;;;;;;;3.93;3.63;;;;;;;;;;6271068;28;20286;-76
2022/01/11 06:39:46;;;;;;;4.30;4.00;;;;;;;;;;6271756;28;20231;-76
2022/01/11 06:42:52;;;;;;;3.90;3.67;;;;;;;;;;6270930;28;20299;-76
2022/01/11 06:45:59;;;;;;;4.73;4.20;;;;;;;;;;6271035;28;20224;-76
2022/01/11 06:49:04;;;;;;;5.50;4.10;;;;;;;;;;6289747;28;20453;-76
2022/01/11 06:52:09;;;;;;;4.77;3.90;;;;;;;;;;6270609;28;20236;-75
2022/01/11 06:55:19;;;;;;;3.27;3.17;;;;;;;;;;6272150;28;20232;-75
2022/01/11 06:58:24;;;;;;;5.50;3.57;;;;;;;;;;6271436;28;20289;-74
2022/01/11 07:01:32;;;;;;;9.83;3.27;;;;;;;;;;6271171;28;20323;-75
2022/01/11 07:04:42;;;;;;;5.13;3.30;;;;;;;;;;6271983;28;20239;-76
2022/01/11 07:07:48;;;;;;;7.93;3.47;;;;;;;;;;6270426;28;20262;-76
2022/01/11 07:10:54;;;;;;;4.57;3.50;;;;;;;;;;6270768;28;20209;-76
2022/01/11 07:13:58;;;;;;;3.50;3.30;;;;;;;;;;6270564;28;20408;-76
2022/01/11 07:17:04;;;;;;;3.57;3.37;;;;;;;;;;6269191;28;20229;-75
2022/01/11 07:20:11;;;;;;;4.37;3.00;;;;;;;;;;6271901;28;20194;-75
2022/01/11 07:23:17;;;;;;;3.00;2.90;;;;;;;;;;6269809;28;20299;-75
2022/01/11 07:26:21;;;;;;;3.07;2.77;;;;;;;;;;6287848;28;20227;-76
2022/01/11 07:29:25;;;;;;;3.83;3.53;;;;;;;;;;6270193;28;20215;-76
2022/01/11 07:32:31;;;;;;;3.43;3.23;;;;;;;;;;6269342;28;20302;-76
2022/01/11 07:35:36;;;;;;;3.43;3.13;;;;;;;;;;6270582;28;20284;-76
2022/01/11 07:38:41;;;;;;;3.13;3.00;;;;;;;;;;6269430;28;20233;-76
2022/01/11 07:41:50;;;;;;;3.33;3.13;;;;;;;;;;6269873;28;20259;-77
2022/01/11 07:45:17;;;;;;;3.10;3.00;;;;;;;;;;6289180;28;20305;-77
2022/01/11 07:48:23;;;;;;;3.27;3.07;;;;;;;;;;6269486;28;20227;-76
2022/01/11 07:51:34;;;;;;;3.50;3.30;;;;;;;;;;6269975;28;20288;-77
2022/01/11 07:54:42;;;;;;;3.40;3.20;;;;;;;;;;6269980;28;20267;-77
2022/01/11 07:57:49;;;;;;;2.60;2.50;;;;;;;;;;6269767;28;20232;-76
2022/01/11 08:00:54;;;;;;;3.13;2.93;;;;;;;;;;6269323;28;20237;-77
2022/01/11 08:04:08;;;;;;;5.50;3.57;;;;;;;;;;6269848;28;20496;-77
2022/01/11 08:07:22;;;;;;;3.30;3.00;;;;;;;;;;6269415;28;20233;-76
2022/01/11 08:10:39;;;;;;;3.00;2.80;;;;;;;;;;6268847;28;20208;-76
2022/01/11 08:13:44;;;;;;;3.17;2.97;;;;;;;;;;6269256;28;20206;-75
2022/01/11 08:16:48;;;;;;;5.70;3.47;;;;;;;;;;6269250;28;20250;-76
2022/01/11 08:19:54;;;;;;;4.13;3.10;;;;;;;;;;6269091;28;20280;-76
2022/01/11 08:22:58;;;;;;;3.70;3.43;;;;;;;;;;6269128;28;20443;-76
2022/01/11 08:26:09;;;;;;;4.27;3.37;;;;;;;;;;6269681;28;20229;-76
2022/01/11 08:29:14;;;;;;;6.47;3.10;;;;;;;;;;6269579;28;20251;-76
2022/01/11 08:32:20;;;;;;;3.23;3.00;;;;;;;;;;6269272;28;20245;-76
2022/01/11 08:35:29;;;;;;;3.67;3.30;;;;;;;;;;6269788;28;20243;-76
2022/01/11 08:38:42;;;;;;;3.60;3.33;;;;;;;;;;6269020;28;20512;-76
2022/01/11 08:41:47;;;;;;;5.83;3.77;;;;;;;;;;6268246;28;20229;-77
2022/01/11 08:44:52;;;;;;;3.80;3.60;;;;;;;;;;6286519;28;20381;-77
2022/01/11 08:48:01;;;;;;;3.50;3.20;;;;;;;;;;6268312;28;20292;-77
2022/01/11 08:51:10;;;;;;;4.57;3.27;;;;;;;;;;6268924;28;20430;-77
2022/01/11 08:54:15;;;;;;;4.27;3.87;;;;;;;;;;6269284;28;20228;-77
2022/01/11 08:57:22;;;;;;;3.77;3.13;;;;;;;;;;6269480;28;20399;-77
2022/01/11 09:00:28;;;;;;;4.53;3.87;;;;;;;;;;6293517;28;20200;-77
2022/01/11 09:03:41;;;;;;;3.90;3.60;;;;;;;;;;6293339;28;20412;-77
2022/01/11 09:06:47;;;;;;;4.10;3.80;;;;;;;;;;6293656;28;20232;-77
2022/01/11 09:09:56;;;;;;;3.97;3.73;;;;;;;;;;6293918;28;20269;-77
2022/01/11 09:13:00;;;;;;;3.50;3.20;;;;;;;;;;6292876;28;20259;-77
2022/01/11 09:16:06;;;;;;;3.30;3.20;;;;;;;;;;6293396;28;20223;-77
2022/01/11 09:19:14;;;;;;;3.70;3.30;;;;;;;;;;6293737;28;20200;-77
2022/01/11 09:22:19;;;;;;;4.07;3.00;;;;;;;;;;6311292;28;20234;-77
2022/01/11 09:25:24;;;;;;;3.43;3.20;;;;;;;;;;6293752;28;20201;-77
2022/01/11 09:28:34;;;;;;;3.70;3.33;;;;;;;;;;6292937;28;20229;-77
2022/01/11 09:31:38;;;;;;;2.93;2.80;;;;;;;;;;6292533;28;20232;-77
2022/01/11 09:34:42;;;;;;;4.27;3.27;;;;;;;;;;6292797;28;20315;-77
2022/01/11 09:37:55;;;;;;;3.90;3.57;;;;;;;;;;6293136;28;20245;-77
2022/01/11 09:41:00;;;;;;;3.60;3.30;;;;;;;;;;6311025;28;20229;-77
2022/01/11 09:44:12;;;;;;;3.37;3.17;;;;;;;;;;6294446;28;20218;-77
2022/01/11 09:47:17;;;;;;;3.60;3.40;;;;;;;;;;6292701;28;20236;-77
2022/01/11 09:50:24;;;;;;;3.20;2.90;;;;;;;;;;6293646;28;20201;-77
2022/01/11 09:53:40;;;;;;;3.80;3.30;;;;;;;;;;6292774;28;20226;-77
2022/01/11 09:56:47;;;;;;;3.40;3.20;;;;;;;;;;6292520;28;20233;-76
2022/01/11 09:59:54;;;;;;;4.30;3.83;;;;;;;;;;6270982;28;20269;-77
2022/01/11 10:03:18;;;;;;;3.83;3.57;;;;;;;;;;6267713;28;20309;-77
2022/01/11 10:06:37;;;;;;;8.27;3.87;;;;;;;;;;6264040;28;20303;-77
2022/01/11 10:09:48;;;;;;;7.67;4.00;;;;;;;;;;6264216;28;20309;-77
2022/01/11 10:12:55;;;;;;;4.47;4.03;;;;;;;;;;6264405;28;20466;-77
2022/01/11 10:16:20;;;;;;;3.87;3.57;;;;;;;;;;6263353;28;20450;-77
2022/01/11 10:19:27;;;;;;;4.83;3.60;;;;;;;;;;6264255;28;20204;-77
2022/01/11 10:22:32;;;;;;;4.07;3.63;;;;;;;;;;6262932;28;20311;-77
2022/01/11 10:25:44;;;;;;;3.73;3.33;;;;;;;;;;6263355;28;20500;-77
2022/01/11 10:28:49;;;;;;;4.23;3.70;;;;;;;;;;6263612;28;20206;-77
2022/01/11 10:31:54;;;;;;;4.07;3.80;;;;;;;;;;6264173;28;20302;-77
2022/01/11 10:35:01;;;;;;;3.80;3.50;;;;;;;;;;6263511;28;20253;-77
2022/01/11 10:38:06;;;;;;;4.03;3.70;;;;;;;;;;6263280;28;20228;-77
2022/01/11 10:41:11;;;;;;;4.30;3.90;;;;;;;;;;6262927;28;20302;-77
2022/01/11 10:44:42;;;;;;;3.47;3.30;;;;;;;;;;6263335;28;20534;-77
2022/01/11 10:47:52;;;;;;;4.47;3.20;;;;;;;;;;6262815;28;20289;-77
2022/01/11 10:51:01;;;;;;;3.70;3.40;;;;;;;;;;6262584;28;20529;-77
2022/01/11 10:54:11;;;;;;;3.87;3.67;;;;;;;;;;6263914;28;20307;-77
2022/01/11 10:57:22;;;;;;;3.43;3.33;;;;;;;;;;6263090;28;20396;-77
2022/01/11 11:00:31;;;;;;;3.90;3.60;;;;;;;;;;6264195;28;20203;-77
2022/01/11 11:03:37;;;;;;;5.30;3.30;;;;;;;;;;6271295;28;20241;-77
2022/01/11 11:06:46;;;;;;;3.30;3.20;;;;;;;;;;6261085;28;20225;-77
2022/01/11 11:09:53;;;;;;;3.37;3.27;;;;;;;;;;6246871;28;20276;-77
2022/01/11 11:13:00;;;;;;;3.97;3.60;;;;;;;;;;6257595;28;20319;-76
2022/01/11 11:16:10;;;;;;;3.50;3.20;;;;;;;;;;6263667;28;20301;-77
2022/01/11 11:19:15;;;;;;;3.57;3.37;;;;;;;;;;6263688;28;20212;-78
2022/01/11 11:22:24;;;;;;;3.20;3.00;;;;;;;;;;6262746;28;20250;-76
2022/01/11 11:25:29;;;;;;;3.87;3.63;;;;;;;;;;6263480;28;20514;-76
2022/01/11 11:28:35;;;;;;;4.13;3.73;;;;;;;;;;6263607;28;20232;-76
2022/01/11 11:31:40;;;;;;;4.47;4.07;;;;;;;;;;6263568;28;20238;-77
2022/01/11 11:34:48;;;;;;;3.50;3.27;;;;;;;;;;6263993;28;20235;-77
2022/01/11 11:37:55;;;;;;;3.80;3.60;;;;;;;;;;6263333;28;20282;-77
2022/01/11 11:41:01;;;;;;;3.93;3.70;;;;;;;;;;6263978;28;20298;-77
2022/01/11 11:44:11;;;;;;;4.10;3.73;;;;;;;;;;6262944;28;20527;-77
2022/01/11 11:47:15;;;;;;;4.63;2.90;;;;;;;;;;6263199;28;20658;-76
2022/01/11 11:50:22;;;;;;;4.70;3.70;;;;;;;;;;6263902;28;20206;-76
2022/01/11 11:53:29;;;;;;;3.40;3.20;;;;;;;;;;6262614;28;20536;-77
2022/01/11 11:56:33;;;;;;;3.20;3.07;;;;;;;;;;6263446;28;20329;-77
2022/01/11 11:59:40;;;;;;;2.87;2.77;;;;;;;;;;6250123;28;20206;-77
2022/01/11 12:02:46;;;;;;;3.10;2.80;;;;;;;;;;6262630;28;20232;-77
2022/01/11 12:05:50;;;;;;;4.70;3.10;;;;;;;;;;6263222;28;20215;-77
2022/01/11 12:09:01;;;;;;;3.40;2.80;;;;;;;;;;6262748;28;20188;-77
2022/01/11 12:12:06;;;;;;;5.80;3.17;;;;;;;;;;6261952;28;20298;-75
2022/01/11 12:15:35;;;;;;;4.03;3.17;;;;;;;;;;6263179;28;20192;-76
2022/01/11 12:18:43;;;;;;;2.83;2.57;;;;;;;;;;6289284;28;20220;-76
2022/01/11 12:22:28;;;;;;;5.97;2.90;;;;;;;;;;6269773;28;20238;-77
2022/01/11 12:25:37;;;;;;;5.50;3.10;;;;;;;;;;6268259;28;20546;-77
2022/01/11 12:28:41;;;;;;;5.60;3.20;;;;;;;;;;6287436;28;20512;-76
2022/01/11 12:31:52;;;;;;;4.83;3.90;;;;;;;;;;6287303;28;20226;-76
2022/01/11 12:35:00;;;;;;;3.57;3.23;;;;;;;;;;6287168;28;20457;-77
2022/01/11 12:38:08;;;;;;;4.00;2.90;;;;;;;;;;6287465;28;20236;-77
2022/01/11 12:41:30;;;;;;;3.07;2.80;;;;;;;;;;6287472;28;20228;-77
2022/01/11 12:45:35;;;;;;;3.00;2.70;;;;;;;;;;6288040;28;20219;-77
2022/01/11 12:48:00;;;;;;;3.00;2.90;;;;;;;;;;6286466;28;20233;-77
2022/01/11 12:51:06;;;;;;;2.80;2.60;;;;;;;;;;6286722;28;20236;-77
2022/01/11 12:54:25;;;;;;;3.57;2.73;;;;;;;;;;6286806;28;20196;-77
2022/01/11 12:57:30;;;;;;;3.17;2.80;;;;;;;;;;6288805;28;20237;-77
2022/01/11 13:00:34;;;;;;;5.03;3.20;;;;;;;;;;6312500;28;20185;-75
2022/01/11 13:03:49;;;;;;;2.80;2.70;;;;;;;;;;6283601;28;20235;-77
2022/01/11 13:06:53;;;;;;;4.77;3.00;;;;;;;;;;6311241;28;20553;-77
2022/01/11 13:10:04;;;;;;;7.10;2.63;;;;;;;;;;6311483;28;20361;-77
2022/01/11 13:13:26;;;;;;;6.43;3.20;;;;;;;;;;6311823;28;20262;-77
2022/01/11 13:16:31;;;;;;;3.90;2.83;;;;;;;;;;6286710;28;20265;-77
2022/01/11 13:19:41;;;;;;;3.47;3.17;;;;;;;;;;6286468;28;20233;-77
2022/01/11 13:23:15;;;;;;;3.20;3.00;;;;;;;;;;6286279;28;20188;-76
2022/01/11 13:26:19;;;;;;;3.53;3.33;;;;;;;;;;6286710;28;20416;-77
2022/01/11 13:29:23;;;;;;;2.60;2.40;;;;;;;;;;6286414;28;20248;-76
2022/01/11 13:32:27;;;;;;;4.00;2.93;;;;;;;;;;6286668;28;20228;-77
2022/01/11 13:35:33;;;;;;;3.80;3.50;;;;;;;;;;6290163;28;20277;-77
2022/01/11 13:38:37;;;;;;;3.80;3.50;;;;;;;;;;6295123;28;20232;-77
2022/01/11 13:41:45;;;;;;;3.70;3.50;;;;;;;;;;6295789;28;20487;-77
2022/01/11 13:44:49;;;;;;;3.47;3.17;;;;;;;;;;6296321;28;20330;-76
2022/01/11 13:47:53;;;;;;;3.27;3.07;;;;;;;;;;6294939;28;20526;-76
2022/01/11 13:51:00;;;;;;;7.83;3.10;;;;;;;;;;6295825;28;20200;-76
2022/01/11 13:54:07;;;;;;;3.73;3.53;;;;;;;;;;6276289;28;20299;-76
2022/01/11 13:57:15;;;;;;;5.13;3.40;;;;;;;;;;6291894;28;20237;-76
2022/01/11 14:00:19;;;;;;;3.87;3.67;;;;;;;;;;6271836;28;20258;-78
2022/01/11 14:03:23;;;;;;;3.13;2.70;;;;;;;;;;6269289;28;20199;-78
2022/01/11 14:06:28;;;;;;;3.20;3.10;;;;;;;;;;6266790;28;20410;-77
2022/01/11 14:09:34;;;;;;;3.90;3.40;;;;;;;;;;6268431;28;20186;-77
2022/01/11 14:12:42;;;;;;;4.20;3.70;;;;;;;;;;6269817;28;20229;-77
2022/01/11 14:16:10;;;;;;;3.70;3.50;;;;;;;;;;6253891;28;20434;-76
2022/01/11 14:19:15;;;;;;;3.87;3.63;;;;;;;;;;6263044;28;20293;-75
2022/01/11 14:22:23;;;;;;;3.40;3.20;;;;;;;;;;6268649;28;20189;-76
2022/01/11 14:25:30;;;;;;;4.40;3.33;;;;;;;;;;6264048;28;20393;-76
2022/01/11 14:28:35;;;;;;;5.63;4.43;;;;;;;;;;6264791;28;20503;-76
2022/01/11 14:31:39;;;;;;;3.63;3.33;;;;;;;;;;6289979;28;20540;-76
2022/01/11 14:34:55;;;;;;;3.37;3.27;;;;;;;;;;6289869;28;20292;-76
2022/01/11 14:38:01;;;;;;;4.73;4.30;;;;;;;;;;6290440;28;20218;-76
2022/01/11 14:41:17;;;;;;;4.40;3.77;;;;;;;;;;6289867;28;20416;-76
2022/01/11 14:44:24;;;;;;;4.13;3.20;;;;;;;;;;6290620;28;20263;-76
2022/01/11 14:47:43;;;;;;;4.13;3.70;;;;;;;;;;6290115;28;20218;-77
2022/01/11 14:50:51;;;;;;;3.80;3.50;;;;;;;;;;6289604;28;20316;-76
2022/01/11 14:53:58;;;;;;;4.20;3.80;;;;;;;;;;6288985;28;20194;-76
2022/01/11 14:57:05;;;;;;;6.67;3.93;;;;;;;;;;6289338;28;20189;-75
2022/01/11 15:00:21;;;;;;;6.57;4.37;;;;;;;;;;6289174;28;20330;-76
2022/01/11 15:03:32;;;;;;;4.77;4.20;;;;;;;;;;6264673;28;20257;-76
2022/01/11 15:06:37;;;;;;;4.23;4.03;;;;;;;;;;6288740;28;20569;-76
2022/01/11 15:09:45;;;;;;;4.93;3.87;;;;;;;;;;6271182;28;20220;-76
2022/01/11 15:12:49;;;;;;;6.57;4.40;;;;;;;;;;6289820;28;20185;-76
2022/01/11 15:15:53;;;;;;;3.03;2.93;;;;;;;;;;6289142;28;20249;-76
2022/01/11 15:18:58;;;;;;;3.97;3.77;;;;;;;;;;6288687;28;20229;-76
2022/01/11 15:22:02;;;;;;;5.90;3.80;;;;;;;;;;6288568;28;20280;-76
2022/01/11 15:25:10;;;;;;;7.27;3.57;;;;;;;;;;6289033;28;20224;-76
2022/01/11 15:28:14;;;;;;;3.83;3.47;;;;;;;;;;6288508;28;20236;-76
2022/01/11 15:31:18;;;;;;;4.17;3.40;;;;;;;;;;6288146;28;20237;-75
2022/01/11 15:34:23;;;;;;;4.20;3.77;;;;;;;;;;6287560;28;20466;-75
2022/01/11 15:37:28;;;;;;;3.50;3.40;;;;;;;;;;6289323;28;20190;-75
2022/01/11 15:40:33;;;;;;;4.50;3.97;;;;;;;;;;6288598;28;20301;-75
2022/01/11 15:43:37;;;;;;;4.10;3.80;;;;;;;;;;6287323;28;20186;-76
2022/01/11 15:46:43;;;;;;;6.33;3.90;;;;;;;;;;6288999;28;20215;-76
2022/01/11 15:49:47;;;;;;;3.70;3.43;;;;;;;;;;6287775;28;20245;-75
2022/01/11 15:52:56;;;;;;;3.23;3.13;;;;;;;;;;6288410;28;20222;-75
2022/01/11 15:56:02;;;;;;;2.67;2.57;;;;;;;;;;6287267;28;20257;-75
2022/01/11 15:59:08;;;;;;;3.87;3.63;;;;;;;;;;6287135;28;20223;-75
2022/01/11 16:02:12;;;;;;;3.37;3.17;;;;;;;;;;6288612;28;20187;-75
2022/01/11 16:05:16;;;;;;;3.70;3.40;;;;;;;;;;6287432;28;20245;-75
2022/01/11 16:08:20;;;;;;;3.70;3.40;;;;;;;;;;6288103;28;20214;-75
2022/01/11 16:11:26;;;;;;;3.97;3.77;;;;;;;;;;6287285;28;20256;-75
2022/01/11 16:14:34;;;;;;;4.23;3.40;;;;;;;;;;6286669;28;20488;-75
2022/01/11 16:17:38;;;;;;;4.27;3.30;;;;;;;;;;6287866;28;20194;-75
2022/01/11 16:20:42;;;;;;;8.50;3.37;;;;;;;;;;6287425;28;20437;-75
2022/01/11 16:23:47;;;;;;;3.60;3.27;;;;;;;;;;6288250;28;20225;-75
2022/01/11 16:26:56;;;;;;;3.50;3.30;;;;;;;;;;6288135;28;20272;-75
2022/01/11 16:30:16;;;;;;;3.53;3.20;;;;;;;;;;6287366;28;20303;-76
2022/01/11 16:33:21;;;;;;;3.30;3.03;;;;;;;;;;6288089;28;20239;-75
2022/01/11 16:36:26;;;;;;;4.13;3.10;;;;;;;;;;6287152;28;20234;-76
2022/01/11 16:39:36;;;;;;;3.63;3.27;;;;;;;;;;6286946;28;20225;-76
2022/01/11 16:42:47;;;;;;;3.93;3.63;;;;;;;;;;6286642;28;20474;-76
2022/01/11 16:45:54;;;;;;;4.67;3.33;;;;;;;;;;6286062;28;20288;-76
2022/01/11 16:49:04;;;;;;;2.77;2.67;;;;;;;;;;6285658;28;20234;-77
2022/01/11 16:52:08;;;;;;;3.47;3.33;;;;;;;;;;6286352;28;20195;-77
2022/01/11 16:55:13;;;;;;;3.03;2.83;;;;;;;;;;6286921;28;20533;-78
2022/01/11 16:58:22;;;;;;;5.20;3.10;;;;;;;;;;6287279;28;20204;-77
2022/01/11 17:01:27;;;;;;;5.33;3.47;;;;;;;;;;6285876;28;20234;-77
2022/01/11 17:04:31;;;;;;;3.60;3.27;;;;;;;;;;6285930;28;20449;-76
2022/01/11 17:07:35;;;;;;;3.03;2.83;;;;;;;;;;6286185;28;20513;-76
2022/01/11 17:10:39;;;;;;;3.70;3.53;;;;;;;;;;6285428;28;20229;-76
2022/01/11 17:13:45;;;;;;;3.30;3.20;;;;;;;;;;6285524;28;20187;-76
2022/01/11 17:16:49;;;;;;;3.97;3.67;;;;;;;;;;6286123;28;20415;-76
2022/01/11 17:19:53;;;;;;;3.50;3.33;;;;;;;;;;6285751;28;20570;-76
2022/01/11 17:22:58;;;;;;;4.00;3.70;;;;;;;;;;6285832;28;20302;-76
2022/01/11 17:26:02;;;;;;;8.27;3.27;;;;;;;;;;6286497;28;20316;-76
2022/01/11 17:29:13;;;;;;;4.27;3.50;;;;;;;;;;6286413;28;20342;-76
2022/01/11 17:32:19;;;;;;;3.90;3.60;;;;;;;;;;6285919;28;20242;-76
2022/01/11 17:35:23;;;;;;;4.07;3.00;;;;;;;;;;6285825;28;20245;-76
2022/01/11 17:38:28;;;;;;;3.63;3.33;;;;;;;;;;6286447;28;20505;-76
2022/01/11 17:41:33;;;;;;;3.37;3.17;;;;;;;;;;6287039;28;20540;-76
2022/01/11 17:44:38;;;;;;;3.73;3.40;;;;;;;;;;6286687;28;20322;-76
2022/01/11 17:47:44;;;;;;;3.90;3.60;;;;;;;;;;6285592;28;20211;-76
2022/01/11 17:50:49;;;;;;;3.67;3.40;;;;;;;;;;6285675;28;20298;-76
2022/01/11 17:53:57;;;;;;;4.03;3.73;;;;;;;;;;6285149;28;20234;-77
2022/01/11 17:57:04;;;;;;;3.60;3.37;;;;;;;;;;6286529;28;20194;-77
2022/01/11 18:00:12;;;;;;;4.40;4.00;;;;;;;;;;6273475;28;20230;-77
2022/01/11 18:03:17;;;;;;;3.77;3.57;;;;;;;;;;6260893;28;20415;-77
2022/01/11 18:06:22;;;;;;;3.30;3.20;;;;;;;;;;6260834;28;20251;-77
2022/01/11 18:09:26;;;;;;;6.57;3.93;;;;;;;;;;6261200;28;20242;-77
2022/01/11 18:12:32;;;;;;;4.43;3.13;;;;;;;;;;6261867;28;20229;-76
2022/01/11 18:15:38;;;;;;;3.43;3.23;;;;;;;;;;6261559;28;20236;-76
2022/01/11 18:18:42;;;;;;;3.77;3.40;;;;;;;;;;6261350;28;20193;-77
2022/01/11 18:21:47;;;;;;;4.03;3.60;;;;;;;;;;6262336;28;20451;-77
2022/01/11 18:24:51;;;;;;;3.97;3.67;;;;;;;;;;6265155;28;20233;-75
2022/01/11 18:27:56;;;;;;;3.77;3.37;;;;;;;;;;6266108;28;20278;-74
2022/01/11 18:31:01;;;;;;;5.80;3.70;;;;;;;;;;6265024;28;20242;-77
2022/01/11 18:34:06;;;;;;;3.77;3.33;;;;;;;;;;6265263;28;20394;-75
2022/01/11 18:37:12;;;;;;;3.67;3.47;;;;;;;;;;6265869;28;20227;-75
2022/01/11 18:40:16;;;;;;;4.33;4.03;;;;;;;;;;6266307;28;20255;-75
2022/01/11 18:43:21;;;;;;;3.50;3.30;;;;;;;;;;6266909;28;20209;-76
2022/01/11 18:46:26;;;;;;;3.90;3.57;;;;;;;;;;6264988;28;20453;-75